sensor_id;sensor_type;location;lat;lon;timestamp;P1;durP1;ratioP1;P2;durP2;ratioP2
14584;SDS011;7379;51.506;11.876;2023-07-28T00:00:24;1.00;;;0.95;;
14584;SDS011;7379;51.506;11.876;2023-07-28T00:02:50;1.08;;;1.00;;
14584;SDS011;7379;51.506;11.876;2023-07-28T00:05:17;1.05;;;1.00;;
14584;SDS011;7379;51.506;11.876;2023-07-28T00:07:44;1.83;;;1.20;;
14584;SDS011;7379;51.506;11.876;2023-07-28T00:10:10;1.17;;;1.00;;
14584;SDS011;7379;51.506;11.876;2023-07-28T00:12:37;1.10;;;1.00;;
14584;SDS011;7379;51.506;11.876;2023-07-28T00:15:06;2.05;;;1.05;;
14584;SDS011;7379;51.506;11.876;2023-07-28T00:17:32;1.70;;;1.02;;
14584;SDS011;7379;51.506;11.876;2023-07-28T00:19:59;1.33;;;1.20;;
14584;SDS011;7379;51.506;11.876;2023-07-28T00:22:26;1.38;;;1.27;;
14584;SDS011;7379;51.506;11.876;2023-07-28T00:24:52;1.75;;;1.10;;
14584;SDS011;7379;51.506;11.876;2023-07-28T00:27:19;1.33;;;1.10;;
14584;SDS011;7379;51.506;11.876;2023-07-28T00:29:46;1.58;;;1.15;;
14584;SDS011;7379;51.506;11.876;2023-07-28T00:32:14;1.85;;;1.02;;
14584;SDS011;7379;51.506;11.876;2023-07-28T00:34:41;1.50;;;1.10;;
14584;SDS011;7379;51.506;11.876;2023-07-28T00:37:08;1.25;;;1.10;;
14584;SDS011;7379;51.506;11.876;2023-07-28T00:39:34;1.63;;;1.17;;
14584;SDS011;7379;51.506;11.876;2023-07-28T00:42:01;1.30;;;1.20;;
14584;SDS011;7379;51.506;11.876;2023-07-28T00:44:28;2.65;;;1.35;;
14584;SDS011;7379;51.506;11.876;2023-07-28T00:46:54;1.60;;;1.40;;
14584;SDS011;7379;51.506;11.876;2023-07-28T00:49:23;2.08;;;1.10;;
14584;SDS011;7379;51.506;11.876;2023-07-28T00:51:50;2.42;;;1.10;;
14584;SDS011;7379;51.506;11.876;2023-07-28T00:54:18;1.30;;;1.13;;
14584;SDS011;7379;51.506;11.876;2023-07-28T00:56:45;2.40;;;1.45;;
14584;SDS011;7379;51.506;11.876;2023-07-28T00:59:12;1.30;;;1.20;;
14584;SDS011;7379;51.506;11.876;2023-07-28T01:01:39;1.63;;;1.30;;
14584;SDS011;7379;51.506;11.876;2023-07-28T01:04:06;1.73;;;1.20;;
14584;SDS011;7379;51.506;11.876;2023-07-28T01:06:37;1.92;;;1.40;;
14584;SDS011;7379;51.506;11.876;2023-07-28T01:09:13;2.28;;;1.60;;
14584;SDS011;7379;51.506;11.876;2023-07-28T01:11:53;2.05;;;1.30;;
14584;SDS011;7379;51.506;11.876;2023-07-28T01:14:20;1.77;;;1.20;;
14584;SDS011;7379;51.506;11.876;2023-07-28T01:16:47;1.40;;;1.27;;
14584;SDS011;7379;51.506;11.876;2023-07-28T01:19:14;1.40;;;1.30;;
14584;SDS011;7379;51.506;11.876;2023-07-28T01:21:44;1.50;;;1.17;;
14584;SDS011;7379;51.506;11.876;2023-07-28T01:24:15;1.98;;;1.38;;
14584;SDS011;7379;51.506;11.876;2023-07-28T01:26:47;1.30;;;1.20;;
14584;SDS011;7379;51.506;11.876;2023-07-28T01:29:16;1.92;;;1.25;;
14584;SDS011;7379;51.506;11.876;2023-07-28T01:31:45;1.42;;;1.33;;
14584;SDS011;7379;51.506;11.876;2023-07-28T01:34:12;1.88;;;1.30;;
14584;SDS011;7379;51.506;11.876;2023-07-28T01:36:39;1.60;;;1.38;;
14584;SDS011;7379;51.506;11.876;2023-07-28T01:39:06;2.08;;;1.40;;
14584;SDS011;7379;51.506;11.876;2023-07-28T01:41:32;1.27;;;1.17;;
14584;SDS011;7379;51.506;11.876;2023-07-28T01:44:00;1.42;;;1.33;;
14584;SDS011;7379;51.506;11.876;2023-07-28T01:46:27;2.65;;;1.30;;
14584;SDS011;7379;51.506;11.876;2023-07-28T01:48:54;1.50;;;1.40;;
14584;SDS011;7379;51.506;11.876;2023-07-28T01:51:20;1.30;;;1.20;;
14584;SDS011;7379;51.506;11.876;2023-07-28T01:53:47;1.40;;;1.27;;
14584;SDS011;7379;51.506;11.876;2023-07-28T01:56:14;1.77;;;1.48;;
14584;SDS011;7379;51.506;11.876;2023-07-28T01:58:41;1.20;;;1.10;;
14584;SDS011;7379;51.506;11.876;2023-07-28T02:01:09;1.67;;;1.35;;
14584;SDS011;7379;51.506;11.876;2023-07-28T02:03:35;2.05;;;1.33;;
14584;SDS011;7379;51.506;11.876;2023-07-28T02:06:02;1.50;;;1.30;;
14584;SDS011;7379;51.506;11.876;2023-07-28T02:08:29;1.40;;;1.30;;
14584;SDS011;7379;51.506;11.876;2023-07-28T02:10:55;1.58;;;1.23;;
14584;SDS011;7379;51.506;11.876;2023-07-28T02:13:22;1.45;;;1.20;;
14584;SDS011;7379;51.506;11.876;2023-07-28T02:15:49;1.50;;;1.40;;
14584;SDS011;7379;51.506;11.876;2023-07-28T02:18:17;1.38;;;1.27;;
14584;SDS011;7379;51.506;11.876;2023-07-28T02:20:43;1.30;;;1.20;;
14584;SDS011;7379;51.506;11.876;2023-07-28T02:23:10;1.55;;;1.30;;
14584;SDS011;7379;51.506;11.876;2023-07-28T02:25:37;2.28;;;1.48;;
14584;SDS011;7379;51.506;11.876;2023-07-28T02:28:04;1.45;;;1.35;;
14584;SDS011;7379;51.506;11.876;2023-07-28T02:30:31;1.65;;;1.52;;
14584;SDS011;7379;51.506;11.876;2023-07-28T02:32:58;1.67;;;1.30;;
14584;SDS011;7379;51.506;11.876;2023-07-28T02:35:26;1.35;;;1.25;;
14584;SDS011;7379;51.506;11.876;2023-07-28T02:37:52;2.38;;;1.60;;
14584;SDS011;7379;51.506;11.876;2023-07-28T02:40:19;1.35;;;1.20;;
14584;SDS011;7379;51.506;11.876;2023-07-28T02:42:46;1.60;;;1.38;;
14584;SDS011;7379;51.506;11.876;2023-07-28T02:45:13;1.52;;;1.40;;
14584;SDS011;7379;51.506;11.876;2023-07-28T02:47:39;2.38;;;1.40;;
14584;SDS011;7379;51.506;11.876;2023-07-28T02:50:06;2.05;;;1.25;;
14584;SDS011;7379;51.506;11.876;2023-07-28T02:52:34;1.50;;;1.40;;
14584;SDS011;7379;51.506;11.876;2023-07-28T02:55:01;1.67;;;1.58;;
14584;SDS011;7379;51.506;11.876;2023-07-28T02:57:28;1.40;;;1.30;;
14584;SDS011;7379;51.506;11.876;2023-07-28T02:59:55;1.70;;;1.52;;
14584;SDS011;7379;51.506;11.876;2023-07-28T03:02:21;2.05;;;1.30;;
14584;SDS011;7379;51.506;11.876;2023-07-28T03:04:48;1.50;;;1.40;;
14584;SDS011;7379;51.506;11.876;2023-07-28T03:07:15;1.60;;;1.50;;
14584;SDS011;7379;51.506;11.876;2023-07-28T03:09:43;2.15;;;1.42;;
14584;SDS011;7379;51.506;11.876;2023-07-28T03:12:10;1.55;;;1.38;;
14584;SDS011;7379;51.506;11.876;2023-07-28T03:14:37;1.70;;;1.40;;
14584;SDS011;7379;51.506;11.876;2023-07-28T03:17:04;1.23;;;1.13;;
14584;SDS011;7379;51.506;11.876;2023-07-28T03:19:31;1.42;;;1.13;;
14584;SDS011;7379;51.506;11.876;2023-07-28T03:21:58;2.05;;;1.38;;
14584;SDS011;7379;51.506;11.876;2023-07-28T03:24:24;1.40;;;1.30;;
14584;SDS011;7379;51.506;11.876;2023-07-28T03:26:52;1.50;;;1.33;;
14584;SDS011;7379;51.506;11.876;2023-07-28T03:29:19;1.48;;;1.38;;
14584;SDS011;7379;51.506;11.876;2023-07-28T03:31:46;1.55;;;1.35;;
14584;SDS011;7379;51.506;11.876;2023-07-28T03:34:12;1.40;;;1.25;;
14584;SDS011;7379;51.506;11.876;2023-07-28T03:36:39;1.83;;;1.33;;
14584;SDS011;7379;51.506;11.876;2023-07-28T03:39:06;1.20;;;1.10;;
14584;SDS011;7379;51.506;11.876;2023-07-28T03:41:32;1.30;;;1.20;;
14584;SDS011;7379;51.506;11.876;2023-07-28T03:44:01;1.83;;;1.23;;
14584;SDS011;7379;51.506;11.876;2023-07-28T03:46:28;1.45;;;1.35;;
14584;SDS011;7379;51.506;11.876;2023-07-28T03:48:54;2.25;;;1.42;;
14584;SDS011;7379;51.506;11.876;2023-07-28T03:51:22;1.70;;;1.25;;
14584;SDS011;7379;51.506;11.876;2023-07-28T03:53:49;1.30;;;1.20;;
14584;SDS011;7379;51.506;11.876;2023-07-28T03:56:16;1.13;;;1.02;;
14584;SDS011;7379;51.506;11.876;2023-07-28T03:58:43;1.30;;;1.20;;
14584;SDS011;7379;51.506;11.876;2023-07-28T04:01:11;1.27;;;1.17;;
14584;SDS011;7379;51.506;11.876;2023-07-28T04:03:38;2.10;;;1.10;;
14584;SDS011;7379;51.506;11.876;2023-07-28T04:06:05;2.08;;;1.30;;
14584;SDS011;7379;51.506;11.876;2023-07-28T04:08:36;1.50;;;1.20;;
14584;SDS011;7379;51.506;11.876;2023-07-28T04:11:03;1.02;;;1.02;;
14584;SDS011;7379;51.506;11.876;2023-07-28T04:13:29;1.30;;;1.20;;
14584;SDS011;7379;51.506;11.876;2023-07-28T04:15:56;1.15;;;1.05;;
14584;SDS011;7379;51.506;11.876;2023-07-28T04:18:24;1.23;;;1.13;;
14584;SDS011;7379;51.506;11.876;2023-07-28T04:20:51;2.03;;;1.40;;
14584;SDS011;7379;51.506;11.876;2023-07-28T04:23:18;1.33;;;1.20;;
14584;SDS011;7379;51.506;11.876;2023-07-28T04:25:44;1.30;;;1.20;;
14584;SDS011;7379;51.506;11.876;2023-07-28T04:28:11;1.58;;;1.48;;
14584;SDS011;7379;51.506;11.876;2023-07-28T04:30:38;1.40;;;1.27;;
14584;SDS011;7379;51.506;11.876;2023-07-28T04:33:04;3.53;;;1.40;;
14584;SDS011;7379;51.506;11.876;2023-07-28T04:35:32;1.38;;;1.27;;
14584;SDS011;7379;51.506;11.876;2023-07-28T04:37:59;1.88;;;1.45;;
14584;SDS011;7379;51.506;11.876;2023-07-28T04:40:26;1.95;;;1.50;;
14584;SDS011;7379;51.506;11.876;2023-07-28T04:42:52;1.15;;;1.05;;
14584;SDS011;7379;51.506;11.876;2023-07-28T04:45:19;1.35;;;1.25;;
14584;SDS011;7379;51.506;11.876;2023-07-28T04:47:46;1.80;;;1.35;;
14584;SDS011;7379;51.506;11.876;2023-07-28T04:50:13;1.83;;;1.35;;
14584;SDS011;7379;51.506;11.876;2023-07-28T04:52:41;1.20;;;1.10;;
14584;SDS011;7379;51.506;11.876;2023-07-28T04:55:08;1.40;;;1.30;;
14584;SDS011;7379;51.506;11.876;2023-07-28T04:57:34;1.40;;;1.30;;
14584;SDS011;7379;51.506;11.876;2023-07-28T05:00:01;1.27;;;1.15;;
14584;SDS011;7379;51.506;11.876;2023-07-28T05:02:29;1.25;;;1.15;;
14584;SDS011;7379;51.506;11.876;2023-07-28T05:04:55;1.95;;;1.42;;
14584;SDS011;7379;51.506;11.876;2023-07-28T05:07:22;1.35;;;1.23;;
14584;SDS011;7379;51.506;11.876;2023-07-28T05:09:50;2.00;;;1.42;;
14584;SDS011;7379;51.506;11.876;2023-07-28T05:12:17;1.38;;;1.23;;
14584;SDS011;7379;51.506;11.876;2023-07-28T05:14:44;2.33;;;1.35;;
14584;SDS011;7379;51.506;11.876;2023-07-28T05:17:10;1.45;;;1.30;;
14584;SDS011;7379;51.506;11.876;2023-07-28T05:19:37;1.42;;;1.33;;
14584;SDS011;7379;51.506;11.876;2023-07-28T05:22:04;1.40;;;1.20;;
14584;SDS011;7379;51.506;11.876;2023-07-28T05:24:32;1.33;;;1.23;;
14584;SDS011;7379;51.506;11.876;2023-07-28T05:27:00;1.20;;;1.10;;
14584;SDS011;7379;51.506;11.876;2023-07-28T05:29:27;1.35;;;1.25;;
14584;SDS011;7379;51.506;11.876;2023-07-28T05:31:54;2.13;;;1.38;;
14584;SDS011;7379;51.506;11.876;2023-07-28T05:34:20;1.65;;;1.20;;
14584;SDS011;7379;51.506;11.876;2023-07-28T05:36:47;1.30;;;1.20;;
14584;SDS011;7379;51.506;11.876;2023-07-28T05:39:14;1.40;;;1.30;;
14584;SDS011;7379;51.506;11.876;2023-07-28T05:41:41;1.30;;;1.20;;
14584;SDS011;7379;51.506;11.876;2023-07-28T05:44:09;1.25;;;1.15;;
14584;SDS011;7379;51.506;11.876;2023-07-28T05:46:35;5.47;;;1.60;;
14584;SDS011;7379;51.506;11.876;2023-07-28T05:49:02;1.73;;;1.33;;
14584;SDS011;7379;51.506;11.876;2023-07-28T05:51:29;1.30;;;1.20;;
14584;SDS011;7379;51.506;11.876;2023-07-28T05:53:56;1.40;;;1.20;;
14584;SDS011;7379;51.506;11.876;2023-07-28T05:56:23;2.17;;;1.40;;
14584;SDS011;7379;51.506;11.876;2023-07-28T05:58:50;1.30;;;1.20;;
14584;SDS011;7379;51.506;11.876;2023-07-28T06:01:18;1.25;;;1.15;;
14584;SDS011;7379;51.506;11.876;2023-07-28T06:03:45;1.30;;;1.20;;
14584;SDS011;7379;51.506;11.876;2023-07-28T06:06:12;1.77;;;1.20;;
14584;SDS011;7379;51.506;11.876;2023-07-28T06:08:38;1.67;;;1.15;;
14584;SDS011;7379;51.506;11.876;2023-07-28T06:11:05;2.10;;;1.27;;
14584;SDS011;7379;51.506;11.876;2023-07-28T06:13:32;1.10;;;1.00;;
14584;SDS011;7379;51.506;11.876;2023-07-28T06:15:59;1.27;;;1.17;;
14584;SDS011;7379;51.506;11.876;2023-07-28T06:18:27;1.38;;;1.02;;
14584;SDS011;7379;51.506;11.876;2023-07-28T06:20:54;2.03;;;1.13;;
14584;SDS011;7379;51.506;11.876;2023-07-28T06:23:20;1.30;;;1.20;;
14584;SDS011;7379;51.506;11.876;2023-07-28T06:25:47;2.00;;;1.30;;
14584;SDS011;7379;51.506;11.876;2023-07-28T06:28:14;1.23;;;1.13;;
14584;SDS011;7379;51.506;11.876;2023-07-28T06:30:41;1.33;;;1.02;;
14584;SDS011;7379;51.506;11.876;2023-07-28T06:33:08;1.27;;;1.17;;
14584;SDS011;7379;51.506;11.876;2023-07-28T06:35:36;1.20;;;1.10;;
14584;SDS011;7379;51.506;11.876;2023-07-28T06:38:05;2.65;;;1.30;;
14584;SDS011;7379;51.506;11.876;2023-07-28T06:40:32;1.85;;;1.00;;
14584;SDS011;7379;51.506;11.876;2023-07-28T06:42:59;0.80;;;0.80;;
14584;SDS011;7379;51.506;11.876;2023-07-28T06:45:25;2.00;;;1.30;;
14584;SDS011;7379;51.506;11.876;2023-07-28T06:47:52;1.42;;;1.33;;
14584;SDS011;7379;51.506;11.876;2023-07-28T06:50:19;1.35;;;1.10;;
14584;SDS011;7379;51.506;11.876;2023-07-28T06:52:47;0.90;;;0.90;;
14584;SDS011;7379;51.506;11.876;2023-07-28T06:55:15;0.90;;;0.90;;
14584;SDS011;7379;51.506;11.876;2023-07-28T06:57:41;1.35;;;1.25;;
14584;SDS011;7379;51.506;11.876;2023-07-28T07:00:08;1.70;;;1.02;;
14584;SDS011;7379;51.506;11.876;2023-07-28T07:02:36;1.10;;;1.00;;
14584;SDS011;7379;51.506;11.876;2023-07-28T07:05:03;1.05;;;0.88;;
14584;SDS011;7379;51.506;11.876;2023-07-28T07:07:31;1.27;;;1.17;;
14584;SDS011;7379;51.506;11.876;2023-07-28T07:09:59;1.10;;;1.00;;
14584;SDS011;7379;51.506;11.876;2023-07-28T07:12:26;2.25;;;1.08;;
14584;SDS011;7379;51.506;11.876;2023-07-28T07:14:53;1.58;;;1.10;;
14584;SDS011;7379;51.506;11.876;2023-07-28T07:17:19;1.67;;;1.20;;
14584;SDS011;7379;51.506;11.876;2023-07-28T07:19:46;4.22;;;1.42;;
14584;SDS011;7379;51.506;11.876;2023-07-28T07:22:14;1.77;;;1.20;;
14584;SDS011;7379;51.506;11.876;2023-07-28T07:24:40;1.23;;;1.13;;
14584;SDS011;7379;51.506;11.876;2023-07-28T07:27:09;2.50;;;1.30;;
14584;SDS011;7379;51.506;11.876;2023-07-28T07:29:36;1.00;;;0.90;;
14584;SDS011;7379;51.506;11.876;2023-07-28T07:32:04;2.30;;;1.38;;
14584;SDS011;7379;51.506;11.876;2023-07-28T07:34:31;2.08;;;1.20;;
14584;SDS011;7379;51.506;11.876;2023-07-28T07:36:58;1.65;;;1.10;;
14584;SDS011;7379;51.506;11.876;2023-07-28T07:39:26;2.25;;;1.20;;
14584;SDS011;7379;51.506;11.876;2023-07-28T07:41:53;0.90;;;0.90;;
14584;SDS011;7379;51.506;11.876;2023-07-28T07:44:21;1.15;;;1.10;;
14584;SDS011;7379;51.506;11.876;2023-07-28T07:46:48;2.00;;;1.35;;
14584;SDS011;7379;51.506;11.876;2023-07-28T07:49:15;1.83;;;1.08;;
14584;SDS011;7379;51.506;11.876;2023-07-28T07:51:42;2.15;;;1.23;;
14584;SDS011;7379;51.506;11.876;2023-07-28T07:54:09;1.55;;;1.38;;
14584;SDS011;7379;51.506;11.876;2023-07-28T07:56:40;1.30;;;1.20;;
14584;SDS011;7379;51.506;11.876;2023-07-28T07:59:07;1.30;;;1.20;;
14584;SDS011;7379;51.506;11.876;2023-07-28T08:01:35;1.90;;;1.55;;
14584;SDS011;7379;51.506;11.876;2023-07-28T08:04:02;1.60;;;1.48;;
14584;SDS011;7379;51.506;11.876;2023-07-28T08:06:29;1.50;;;1.40;;
14584;SDS011;7379;51.506;11.876;2023-07-28T08:08:55;1.80;;;1.50;;
14584;SDS011;7379;51.506;11.876;2023-07-28T08:11:24;1.52;;;1.30;;
14584;SDS011;7379;51.506;11.876;2023-07-28T08:13:51;1.98;;;1.48;;
14584;SDS011;7379;51.506;11.876;2023-07-28T08:16:18;2.75;;;1.52;;
14584;SDS011;7379;51.506;11.876;2023-07-28T08:18:46;2.38;;;1.40;;
14584;SDS011;7379;51.506;11.876;2023-07-28T08:21:13;1.70;;;1.60;;
14584;SDS011;7379;51.506;11.876;2023-07-28T08:23:40;1.70;;;1.45;;
14584;SDS011;7379;51.506;11.876;2023-07-28T08:26:06;1.60;;;1.50;;
14584;SDS011;7379;51.506;11.876;2023-07-28T08:28:33;1.60;;;1.50;;
14584;SDS011;7379;51.506;11.876;2023-07-28T08:31:00;1.27;;;1.20;;
14584;SDS011;7379;51.506;11.876;2023-07-28T08:33:28;1.45;;;1.35;;
14584;SDS011;7379;51.506;11.876;2023-07-28T08:35:57;1.70;;;1.60;;
14584;SDS011;7379;51.506;11.876;2023-07-28T08:38:23;1.23;;;1.13;;
14584;SDS011;7379;51.506;11.876;2023-07-28T08:40:50;1.73;;;1.58;;
14584;SDS011;7379;51.506;11.876;2023-07-28T08:43:17;1.70;;;1.50;;
14584;SDS011;7379;51.506;11.876;2023-07-28T08:45:43;1.80;;;1.40;;
14584;SDS011;7379;51.506;11.876;2023-07-28T08:48:10;2.38;;;1.60;;
14584;SDS011;7379;51.506;11.876;2023-07-28T08:50:37;1.80;;;1.70;;
14584;SDS011;7379;51.506;11.876;2023-07-28T08:53:05;1.60;;;1.50;;
14584;SDS011;7379;51.506;11.876;2023-07-28T08:55:32;1.98;;;1.70;;
14584;SDS011;7379;51.506;11.876;2023-07-28T08:58:13;1.70;;;1.60;;
14584;SDS011;7379;51.506;11.876;2023-07-28T09:00:40;2.22;;;1.60;;
14584;SDS011;7379;51.506;11.876;2023-07-28T09:03:08;2.00;;;1.77;;
14584;SDS011;7379;51.506;11.876;2023-07-28T09:05:35;2.30;;;1.73;;
14584;SDS011;7379;51.506;11.876;2023-07-28T09:08:03;2.00;;;1.70;;
14584;SDS011;7379;51.506;11.876;2023-07-28T09:10:39;1.92;;;1.80;;
14584;SDS011;7379;51.506;11.876;2023-07-28T09:13:08;2.00;;;1.80;;
14584;SDS011;7379;51.506;11.876;2023-07-28T09:15:36;1.80;;;1.70;;
14584;SDS011;7379;51.506;11.876;2023-07-28T09:18:02;3.17;;;1.90;;
14584;SDS011;7379;51.506;11.876;2023-07-28T09:20:33;2.65;;;1.95;;
14584;SDS011;7379;51.506;11.876;2023-07-28T09:23:01;4.70;;;2.00;;
14584;SDS011;7379;51.506;11.876;2023-07-28T09:25:29;2.20;;;2.00;;
14584;SDS011;7379;51.506;11.876;2023-07-28T09:27:56;3.28;;;2.10;;
14584;SDS011;7379;51.506;11.876;2023-07-28T09:30:24;2.20;;;2.00;;
14584;SDS011;7379;51.506;11.876;2023-07-28T09:32:52;3.22;;;2.15;;
14584;SDS011;7379;51.506;11.876;2023-07-28T09:35:20;2.17;;;1.98;;
14584;SDS011;7379;51.506;11.876;2023-07-28T09:37:47;2.35;;;2.13;;
14584;SDS011;7379;51.506;11.876;2023-07-28T09:40:16;2.60;;;2.08;;
14584;SDS011;7379;51.506;11.876;2023-07-28T09:42:46;2.20;;;1.90;;
14584;SDS011;7379;51.506;11.876;2023-07-28T09:45:15;2.40;;;2.00;;
14584;SDS011;7379;51.506;11.876;2023-07-28T09:47:43;2.20;;;2.00;;
14584;SDS011;7379;51.506;11.876;2023-07-28T09:50:12;2.40;;;2.20;;
14584;SDS011;7379;51.506;11.876;2023-07-28T09:52:42;2.38;;;2.17;;
14584;SDS011;7379;51.506;11.876;2023-07-28T09:55:10;2.28;;;2.00;;
14584;SDS011;7379;51.506;11.876;2023-07-28T09:57:43;3.78;;;2.13;;
14584;SDS011;7379;51.506;11.876;2023-07-28T10:00:14;2.40;;;2.20;;
14584;SDS011;7379;51.506;11.876;2023-07-28T10:02:43;3.70;;;1.90;;
14584;SDS011;7379;51.506;11.876;2023-07-28T10:05:10;2.20;;;2.00;;
14584;SDS011;7379;51.506;11.876;2023-07-28T10:07:40;3.63;;;1.98;;
14584;SDS011;7379;51.506;11.876;2023-07-28T10:10:09;2.13;;;1.90;;
14584;SDS011;7379;51.506;11.876;2023-07-28T10:12:40;3.55;;;2.10;;
14584;SDS011;7379;51.506;11.876;2023-07-28T10:15:13;2.97;;;1.80;;
14584;SDS011;7379;51.506;11.876;2023-07-28T10:17:43;2.10;;;1.90;;
14584;SDS011;7379;51.506;11.876;2023-07-28T10:20:31;2.40;;;1.88;;
14584;SDS011;7379;51.506;11.876;2023-07-28T10:23:04;2.15;;;1.70;;
14584;SDS011;7379;51.506;11.876;2023-07-28T10:25:32;1.90;;;1.80;;
14584;SDS011;7379;51.506;11.876;2023-07-28T10:28:01;2.00;;;1.80;;
14584;SDS011;7379;51.506;11.876;2023-07-28T10:30:32;2.08;;;1.70;;
14584;SDS011;7379;51.506;11.876;2023-07-28T10:33:05;3.17;;;1.95;;
14584;SDS011;7379;51.506;11.876;2023-07-28T10:35:32;2.00;;;1.80;;
14584;SDS011;7379;51.506;11.876;2023-07-28T10:41:06;2.13;;;1.77;;
14584;SDS011;7379;51.506;11.876;2023-07-28T10:43:34;2.22;;;1.90;;
14584;SDS011;7379;51.506;11.876;2023-07-28T10:46:02;2.28;;;1.88;;
14584;SDS011;7379;51.506;11.876;2023-07-28T10:48:31;1.90;;;1.80;;
14584;SDS011;7379;51.506;11.876;2023-07-28T10:50:58;2.83;;;1.80;;
14584;SDS011;7379;51.506;11.876;2023-07-28T10:53:26;2.58;;;1.77;;
14584;SDS011;7379;51.506;11.876;2023-07-28T10:55:53;2.13;;;1.92;;
14584;SDS011;7379;51.506;11.876;2023-07-28T10:58:20;5.47;;;2.00;;
14584;SDS011;7379;51.506;11.876;2023-07-28T11:00:47;2.30;;;1.70;;
14584;SDS011;7379;51.506;11.876;2023-07-28T11:03:17;2.03;;;1.80;;
14584;SDS011;7379;51.506;11.876;2023-07-28T11:05:45;2.65;;;1.80;;
14584;SDS011;7379;51.506;11.876;2023-07-28T11:08:14;2.35;;;1.80;;
14584;SDS011;7379;51.506;11.876;2023-07-28T11:10:40;2.00;;;1.85;;
14584;SDS011;7379;51.506;11.876;2023-07-28T11:13:07;2.15;;;1.95;;
14584;SDS011;7379;51.506;11.876;2023-07-28T11:15:34;1.80;;;1.70;;
14584;SDS011;7379;51.506;11.876;2023-07-28T11:18:02;2.20;;;1.77;;
14584;SDS011;7379;51.506;11.876;2023-07-28T11:20:31;1.88;;;1.70;;
14584;SDS011;7379;51.506;11.876;2023-07-28T11:22:59;3.15;;;1.80;;
14584;SDS011;7379;51.506;11.876;2023-07-28T11:25:27;2.13;;;1.90;;
14584;SDS011;7379;51.506;11.876;2023-07-28T11:27:54;2.42;;;1.70;;
14584;SDS011;7379;51.506;11.876;2023-07-28T11:30:22;2.72;;;1.80;;
14584;SDS011;7379;51.506;11.876;2023-07-28T11:32:49;2.00;;;1.80;;
14584;SDS011;7379;51.506;11.876;2023-07-28T11:35:18;1.80;;;1.70;;
14584;SDS011;7379;51.506;11.876;2023-07-28T11:37:49;2.00;;;1.90;;
14584;SDS011;7379;51.506;11.876;2023-07-28T11:40:18;2.85;;;1.80;;
14584;SDS011;7379;51.506;11.876;2023-07-28T11:42:47;2.00;;;1.80;;
14584;SDS011;7379;51.506;11.876;2023-07-28T11:45:16;1.95;;;1.83;;
14584;SDS011;7379;51.506;11.876;2023-07-28T11:47:51;1.90;;;1.80;;
14584;SDS011;7379;51.506;11.876;2023-07-28T11:50:22;1.88;;;1.77;;
14584;SDS011;7379;51.506;11.876;2023-07-28T11:52:51;3.83;;;1.90;;
14584;SDS011;7379;51.506;11.876;2023-07-28T11:55:18;1.90;;;1.80;;
14584;SDS011;7379;51.506;11.876;2023-07-28T11:57:46;2.28;;;1.75;;
14584;SDS011;7379;51.506;11.876;2023-07-28T12:00:13;1.70;;;1.60;;
14584;SDS011;7379;51.506;11.876;2023-07-28T12:02:42;2.00;;;1.80;;
14584;SDS011;7379;51.506;11.876;2023-07-28T12:05:11;2.63;;;1.80;;
14584;SDS011;7379;51.506;11.876;2023-07-28T12:07:39;1.95;;;1.75;;
14584;SDS011;7379;51.506;11.876;2023-07-28T12:10:08;2.25;;;2.00;;
14584;SDS011;7379;51.506;11.876;2023-07-28T12:12:44;3.88;;;1.90;;
14584;SDS011;7379;51.506;11.876;2023-07-28T12:15:18;2.10;;;1.90;;
14584;SDS011;7379;51.506;11.876;2023-07-28T12:17:59;3.88;;;1.95;;
14584;SDS011;7379;51.506;11.876;2023-07-28T12:20:34;3.38;;;1.95;;
14584;SDS011;7379;51.506;11.876;2023-07-28T12:23:02;3.33;;;2.25;;
14584;SDS011;7379;51.506;11.876;2023-07-28T12:25:30;2.30;;;2.10;;
14584;SDS011;7379;51.506;11.876;2023-07-28T12:27:58;2.05;;;1.92;;
14584;SDS011;7379;51.506;11.876;2023-07-28T12:30:25;2.20;;;2.00;;
14584;SDS011;7379;51.506;11.876;2023-07-28T12:32:52;2.35;;;2.10;;
14584;SDS011;7379;51.506;11.876;2023-07-28T12:35:18;4.22;;;2.10;;
14584;SDS011;7379;51.506;11.876;2023-07-28T12:37:46;2.22;;;2.03;;
14584;SDS011;7379;51.506;11.876;2023-07-28T12:40:13;2.45;;;2.08;;
14584;SDS011;7379;51.506;11.876;2023-07-28T12:42:41;2.22;;;2.03;;
14584;SDS011;7379;51.506;11.876;2023-07-28T12:45:08;1.95;;;1.85;;
14584;SDS011;7379;51.506;11.876;2023-07-28T12:47:36;2.20;;;2.00;;
14584;SDS011;7379;51.506;11.876;2023-07-28T12:50:03;2.30;;;2.10;;
14584;SDS011;7379;51.506;11.876;2023-07-28T12:52:31;2.05;;;1.95;;
14584;SDS011;7379;51.506;11.876;2023-07-28T12:54:58;2.10;;;2.00;;
14584;SDS011;7379;51.506;11.876;2023-07-28T12:57:25;4.30;;;2.20;;
14584;SDS011;7379;51.506;11.876;2023-07-28T12:59:53;2.25;;;2.05;;
14584;SDS011;7379;51.506;11.876;2023-07-28T13:02:19;2.25;;;2.05;;
14584;SDS011;7379;51.506;11.876;2023-07-28T13:04:46;2.30;;;2.10;;
14584;SDS011;7379;51.506;11.876;2023-07-28T13:07:13;2.40;;;2.20;;
14584;SDS011;7379;51.506;11.876;2023-07-28T13:09:40;3.40;;;2.10;;
14584;SDS011;7379;51.506;11.876;2023-07-28T13:12:07;2.38;;;2.17;;
14584;SDS011;7379;51.506;11.876;2023-07-28T13:14:34;2.50;;;2.30;;
14584;SDS011;7379;51.506;11.876;2023-07-28T13:17:03;2.72;;;2.10;;
14584;SDS011;7379;51.506;11.876;2023-07-28T13:19:30;3.15;;;2.20;;
14584;SDS011;7379;51.506;11.876;2023-07-28T13:21:56;2.33;;;2.13;;
14584;SDS011;7379;51.506;11.876;2023-07-28T13:24:23;2.20;;;2.00;;
14584;SDS011;7379;51.506;11.876;2023-07-28T13:26:50;2.50;;;2.17;;
14584;SDS011;7379;51.506;11.876;2023-07-28T13:29:17;2.45;;;2.22;;
14584;SDS011;7379;51.506;11.876;2023-07-28T13:31:43;2.30;;;2.10;;
14584;SDS011;7379;51.506;11.876;2023-07-28T13:34:11;2.53;;;2.20;;
14584;SDS011;7379;51.506;11.876;2023-07-28T13:36:38;2.40;;;2.20;;
14584;SDS011;7379;51.506;11.876;2023-07-28T13:39:05;2.88;;;2.03;;
14584;SDS011;7379;51.506;11.876;2023-07-28T13:41:32;2.30;;;1.92;;
14584;SDS011;7379;51.506;11.876;2023-07-28T13:43:58;2.20;;;2.00;;
14584;SDS011;7379;51.506;11.876;2023-07-28T13:46:25;2.20;;;2.00;;
14584;SDS011;7379;51.506;11.876;2023-07-28T13:48:52;2.00;;;1.90;;
14584;SDS011;7379;51.506;11.876;2023-07-28T13:51:20;2.22;;;2.03;;
14584;SDS011;7379;51.506;11.876;2023-07-28T13:53:47;2.22;;;1.95;;
14584;SDS011;7379;51.506;11.876;2023-07-28T13:56:14;2.20;;;2.00;;
14584;SDS011;7379;51.506;11.876;2023-07-28T13:58:40;3.15;;;2.17;;
14584;SDS011;7379;51.506;11.876;2023-07-28T14:01:07;3.28;;;2.30;;
14584;SDS011;7379;51.506;11.876;2023-07-28T14:03:34;3.22;;;2.10;;
14584;SDS011;7379;51.506;11.876;2023-07-28T14:06:00;2.20;;;2.00;;
14584;SDS011;7379;51.506;11.876;2023-07-28T14:08:28;2.35;;;2.15;;
14584;SDS011;7379;51.506;11.876;2023-07-28T14:10:55;2.30;;;2.10;;
14584;SDS011;7379;51.506;11.876;2023-07-28T14:13:22;2.42;;;2.20;;
14584;SDS011;7379;51.506;11.876;2023-07-28T14:15:49;3.00;;;2.35;;
14584;SDS011;7379;51.506;11.876;2023-07-28T14:18:16;2.40;;;2.20;;
14584;SDS011;7379;51.506;11.876;2023-07-28T14:20:43;2.38;;;2.17;;
14584;SDS011;7379;51.506;11.876;2023-07-28T14:23:22;2.50;;;2.30;;
14584;SDS011;7379;51.506;11.876;2023-07-28T14:25:51;3.17;;;2.30;;
14584;SDS011;7379;51.506;11.876;2023-07-28T14:28:18;3.90;;;2.20;;
14584;SDS011;7379;51.506;11.876;2023-07-28T14:30:46;2.25;;;2.05;;
14584;SDS011;7379;51.506;11.876;2023-07-28T14:33:13;2.50;;;2.30;;
14584;SDS011;7379;51.506;11.876;2023-07-28T14:35:40;2.22;;;2.03;;
14584;SDS011;7379;51.506;11.876;2023-07-28T14:38:07;2.33;;;2.13;;
14584;SDS011;7379;51.506;11.876;2023-07-28T14:40:34;2.65;;;2.20;;
14584;SDS011;7379;51.506;11.876;2023-07-28T14:43:03;2.30;;;2.10;;
14584;SDS011;7379;51.506;11.876;2023-07-28T14:45:30;2.35;;;2.05;;
14584;SDS011;7379;51.506;11.876;2023-07-28T14:47:57;2.00;;;1.90;;
14584;SDS011;7379;51.506;11.876;2023-07-28T14:50:23;2.92;;;2.15;;
14584;SDS011;7379;51.506;11.876;2023-07-28T14:52:50;2.20;;;2.00;;